sensor_id;sensor_type;location;lat;lon;timestamp;temperature;humidity
65044;DHT22;51617;48.158;16.464;2023-08-31T00:00:10;19.10;93.60
65044;DHT22;51617;48.158;16.464;2023-08-31T00:02:38;19.00;93.50
65044;DHT22;51617;48.158;16.464;2023-08-31T00:05:04;19.10;93.60
65044;DHT22;51617;48.158;16.464;2023-08-31T00:07:30;19.10;93.40
65044;DHT22;51617;48.158;16.464;2023-08-31T00:09:55;19.10;93.40
65044;DHT22;51617;48.158;16.464;2023-08-31T00:12:21;19.10;93.50
65044;DHT22;51617;48.158;16.464;2023-08-31T00:14:49;19.00;93.50
65044;DHT22;51617;48.158;16.464;2023-08-31T00:17:14;19.00;93.50
65044;DHT22;51617;48.158;16.464;2023-08-31T00:19:40;19.00;93.60
65044;DHT22;51617;48.158;16.464;2023-08-31T00:22:05;19.00;93.40
65044;DHT22;51617;48.158;16.464;2023-08-31T00:24:31;19.00;93.40
65044;DHT22;51617;48.158;16.464;2023-08-31T00:26:58;19.00;93.40
65044;DHT22;51617;48.158;16.464;2023-08-31T00:29:24;19.00;93.40
65044;DHT22;51617;48.158;16.464;2023-08-31T00:31:50;19.00;93.50
65044;DHT22;51617;48.158;16.464;2023-08-31T00:34:16;19.00;93.50
65044;DHT22;51617;48.158;16.464;2023-08-31T00:36:43;18.90;93.60
65044;DHT22;51617;48.158;16.464;2023-08-31T00:39:08;18.90;93.70
65044;DHT22;51617;48.158;16.464;2023-08-31T00:41:36;18.80;93.70
65044;DHT22;51617;48.158;16.464;2023-08-31T00:44:01;18.80;93.90
65044;DHT22;51617;48.158;16.464;2023-08-31T00:46:30;18.80;93.80
65044;DHT22;51617;48.158;16.464;2023-08-31T00:48:56;18.90;93.90
65044;DHT22;51617;48.158;16.464;2023-08-31T00:51:23;18.80;93.80
65044;DHT22;51617;48.158;16.464;2023-08-31T00:53:49;18.80;94.00
65044;DHT22;51617;48.158;16.464;2023-08-31T00:56:18;18.80;94.00
65044;DHT22;51617;48.158;16.464;2023-08-31T00:58:44;18.80;94.00
65044;DHT22;51617;48.158;16.464;2023-08-31T01:06:35;18.80;94.30
65044;DHT22;51617;48.158;16.464;2023-08-31T01:14:16;18.70;94.50
65044;DHT22;51617;48.158;16.464;2023-08-31T01:16:43;18.50;94.50
65044;DHT22;51617;48.158;16.464;2023-08-31T01:19:16;18.60;94.60
65044;DHT22;51617;48.158;16.464;2023-08-31T01:21:42;18.60;94.60
65044;DHT22;51617;48.158;16.464;2023-08-31T01:24:10;18.60;94.70
65044;DHT22;51617;48.158;16.464;2023-08-31T01:26:36;18.60;94.80
65044;DHT22;51617;48.158;16.464;2023-08-31T01:29:02;18.50;94.80
65044;DHT22;51617;48.158;16.464;2023-08-31T01:31:28;18.60;94.90
65044;DHT22;51617;48.158;16.464;2023-08-31T01:33:54;18.60;94.90
65044;DHT22;51617;48.158;16.464;2023-08-31T01:36:24;18.50;94.90
65044;DHT22;51617;48.158;16.464;2023-08-31T01:38:54;18.60;94.90
65044;DHT22;51617;48.158;16.464;2023-08-31T01:41:21;18.60;95.00
65044;DHT22;51617;48.158;16.464;2023-08-31T01:43:48;18.50;95.00
65044;DHT22;51617;48.158;16.464;2023-08-31T01:46:14;18.50;95.20
65044;DHT22;51617;48.158;16.464;2023-08-31T01:48:40;18.50;95.50
65044;DHT22;51617;48.158;16.464;2023-08-31T01:51:07;18.40;95.50
65044;DHT22;51617;48.158;16.464;2023-08-31T01:53:32;18.50;95.60
65044;DHT22;51617;48.158;16.464;2023-08-31T01:55:58;18.50;95.70
65044;DHT22;51617;48.158;16.464;2023-08-31T01:58:23;18.50;96.00
65044;DHT22;51617;48.158;16.464;2023-08-31T02:00:49;18.40;96.10
65044;DHT22;51617;48.158;16.464;2023-08-31T02:03:14;18.50;96.30
65044;DHT22;51617;48.158;16.464;2023-08-31T02:05:40;18.40;96.40
65044;DHT22;51617;48.158;16.464;2023-08-31T02:08:05;18.40;96.60
65044;DHT22;51617;48.158;16.464;2023-08-31T02:10:31;18.40;96.60
65044;DHT22;51617;48.158;16.464;2023-08-31T02:12:56;18.40;96.70
65044;DHT22;51617;48.158;16.464;2023-08-31T02:15:22;18.40;96.80
65044;DHT22;51617;48.158;16.464;2023-08-31T02:17:47;18.30;97.00
65044;DHT22;51617;48.158;16.464;2023-08-31T02:20:13;18.40;97.00
65044;DHT22;51617;48.158;16.464;2023-08-31T02:22:39;18.30;97.10
65044;DHT22;51617;48.158;16.464;2023-08-31T02:25:05;18.30;97.00
65044;DHT22;51617;48.158;16.464;2023-08-31T02:27:30;18.30;97.10
65044;DHT22;51617;48.158;16.464;2023-08-31T02:29:56;18.20;97.00
65044;DHT22;51617;48.158;16.464;2023-08-31T02:32:22;18.30;97.00
65044;DHT22;51617;48.158;16.464;2023-08-31T02:34:47;18.20;97.10
65044;DHT22;51617;48.158;16.464;2023-08-31T02:37:13;18.20;97.10
65044;DHT22;51617;48.158;16.464;2023-08-31T02:39:38;18.20;97.30
65044;DHT22;51617;48.158;16.464;2023-08-31T02:42:05;18.30;97.50
65044;DHT22;51617;48.158;16.464;2023-08-31T02:44:31;18.30;97.40
65044;DHT22;51617;48.158;16.464;2023-08-31T02:46:57;18.30;97.50
65044;DHT22;51617;48.158;16.464;2023-08-31T02:49:22;18.20;97.50
65044;DHT22;51617;48.158;16.464;2023-08-31T02:51:48;18.20;97.70
65044;DHT22;51617;48.158;16.464;2023-08-31T02:54:14;18.20;98.00
65044;DHT22;51617;48.158;16.464;2023-08-31T02:56:40;18.20;97.80
65044;DHT22;51617;48.158;16.464;2023-08-31T02:59:05;18.10;97.90
65044;DHT22;51617;48.158;16.464;2023-08-31T03:01:31;18.10;97.90
65044;DHT22;51617;48.158;16.464;2023-08-31T03:03:56;18.10;98.00
65044;DHT22;51617;48.158;16.464;2023-08-31T03:06:22;18.10;98.10
65044;DHT22;51617;48.158;16.464;2023-08-31T03:08:47;18.10;98.10
65044;DHT22;51617;48.158;16.464;2023-08-31T03:11:13;18.00;98.20
65044;DHT22;51617;48.158;16.464;2023-08-31T03:13:41;18.00;98.40
65044;DHT22;51617;48.158;16.464;2023-08-31T03:16:07;18.00;98.40
65044;DHT22;51617;48.158;16.464;2023-08-31T03:18:33;18.00;98.50
65044;DHT22;51617;48.158;16.464;2023-08-31T03:20:58;18.00;98.50
65044;DHT22;51617;48.158;16.464;2023-08-31T03:23:24;18.00;98.50
65044;DHT22;51617;48.158;16.464;2023-08-31T03:25:49;18.00;98.50
65044;DHT22;51617;48.158;16.464;2023-08-31T03:28:15;18.00;98.50
65044;DHT22;51617;48.158;16.464;2023-08-31T03:30:40;18.00;98.50
65044;DHT22;51617;48.158;16.464;2023-08-31T03:33:06;18.10;98.30
65044;DHT22;51617;48.158;16.464;2023-08-31T03:35:32;18.10;98.30
65044;DHT22;51617;48.158;16.464;2023-08-31T03:37:57;18.10;98.30
65044;DHT22;51617;48.158;16.464;2023-08-31T03:40:23;18.10;98.20
65044;DHT22;51617;48.158;16.464;2023-08-31T03:42:49;18.10;98.30
65044;DHT22;51617;48.158;16.464;2023-08-31T03:45:15;18.10;98.20
65044;DHT22;51617;48.158;16.464;2023-08-31T03:47:40;18.10;98.00
65044;DHT22;51617;48.158;16.464;2023-08-31T03:50:06;18.10;97.90
65044;DHT22;51617;48.158;16.464;2023-08-31T03:52:31;18.10;98.00
65044;DHT22;51617;48.158;16.464;2023-08-31T03:54:57;18.20;98.00
65044;DHT22;51617;48.158;16.464;2023-08-31T03:57:22;18.20;97.90
65044;DHT22;51617;48.158;16.464;2023-08-31T03:59:48;18.20;97.80
65044;DHT22;51617;48.158;16.464;2023-08-31T04:02:14;18.20;97.70
65044;DHT22;51617;48.158;16.464;2023-08-31T04:04:39;18.10;97.60
65044;DHT22;51617;48.158;16.464;2023-08-31T04:07:05;18.20;97.70
65044;DHT22;51617;48.158;16.464;2023-08-31T04:09:32;18.20;97.60
65044;DHT22;51617;48.158;16.464;2023-08-31T04:11:57;18.10;97.80
65044;DHT22;51617;48.158;16.464;2023-08-31T04:14:23;18.10;98.00
65044;DHT22;51617;48.158;16.464;2023-08-31T04:16:48;18.10;98.20
65044;DHT22;51617;48.158;16.464;2023-08-31T04:19:15;18.10;98.30
65044;DHT22;51617;48.158;16.464;2023-08-31T04:21:43;18.00;98.60
65044;DHT22;51617;48.158;16.464;2023-08-31T04:24:09;17.90;98.80
65044;DHT22;51617;48.158;16.464;2023-08-31T04:26:35;17.80;99.00
65044;DHT22;51617;48.158;16.464;2023-08-31T04:29:01;17.80;99.10
65044;DHT22;51617;48.158;16.464;2023-08-31T04:31:28;17.80;99.10
65044;DHT22;51617;48.158;16.464;2023-08-31T04:33:54;17.70;99.20
65044;DHT22;51617;48.158;16.464;2023-08-31T04:36:20;17.80;99.30
65044;DHT22;51617;48.158;16.464;2023-08-31T04:38:46;17.80;99.40
65044;DHT22;51617;48.158;16.464;2023-08-31T04:41:12;17.80;99.30
65044;DHT22;51617;48.158;16.464;2023-08-31T04:43:38;17.90;98.90
65044;DHT22;51617;48.158;16.464;2023-08-31T04:46:04;17.90;98.60
65044;DHT22;51617;48.158;16.464;2023-08-31T04:48:29;18.00;98.30
65044;DHT22;51617;48.158;16.464;2023-08-31T04:50:55;18.10;98.10
65044;DHT22;51617;48.158;16.464;2023-08-31T04:53:22;18.20;97.90
65044;DHT22;51617;48.158;16.464;2023-08-31T04:55:48;18.30;97.70
65044;DHT22;51617;48.158;16.464;2023-08-31T04:58:13;18.30;97.50
65044;DHT22;51617;48.158;16.464;2023-08-31T05:00:38;18.30;97.40
65044;DHT22;51617;48.158;16.464;2023-08-31T05:03:04;18.40;97.30
65044;DHT22;51617;48.158;16.464;2023-08-31T05:05:30;18.40;97.70
65044;DHT22;51617;48.158;16.464;2023-08-31T05:07:55;18.40;97.70
65044;DHT22;51617;48.158;16.464;2023-08-31T05:10:21;18.40;97.50
65044;DHT22;51617;48.158;16.464;2023-08-31T05:12:46;18.40;97.30
65044;DHT22;51617;48.158;16.464;2023-08-31T05:15:12;18.40;97.10
65044;DHT22;51617;48.158;16.464;2023-08-31T05:17:37;18.30;97.10
65044;DHT22;51617;48.158;16.464;2023-08-31T05:20:03;18.60;96.80
65044;DHT22;51617;48.158;16.464;2023-08-31T05:22:30;18.30;96.60
65044;DHT22;51617;48.158;16.464;2023-08-31T05:24:55;18.40;96.70
65044;DHT22;51617;48.158;16.464;2023-08-31T05:27:21;18.40;96.50
65044;DHT22;51617;48.158;16.464;2023-08-31T05:29:46;18.50;96.40
65044;DHT22;51617;48.158;16.464;2023-08-31T05:32:12;18.50;96.40
65044;DHT22;51617;48.158;16.464;2023-08-31T05:34:37;18.70;96.20
65044;DHT22;51617;48.158;16.464;2023-08-31T05:37:04;18.70;96.10
65044;DHT22;51617;48.158;16.464;2023-08-31T05:39:30;18.70;96.00
65044;DHT22;51617;48.158;16.464;2023-08-31T05:41:55;18.70;95.90
65044;DHT22;51617;48.158;16.464;2023-08-31T05:44:21;18.80;96.00
65044;DHT22;51617;48.158;16.464;2023-08-31T05:46:47;18.90;95.90
65044;DHT22;51617;48.158;16.464;2023-08-31T05:49:12;19.00;95.90
65044;DHT22;51617;48.158;16.464;2023-08-31T05:51:38;19.00;95.70
65044;DHT22;51617;48.158;16.464;2023-08-31T05:54:03;19.10;95.70
65044;DHT22;51617;48.158;16.464;2023-08-31T05:56:29;19.20;95.80
65044;DHT22;51617;48.158;16.464;2023-08-31T05:58:54;19.20;95.50
65044;DHT22;51617;48.158;16.464;2023-08-31T06:01:21;19.30;95.40
65044;DHT22;51617;48.158;16.464;2023-08-31T06:03:49;19.40;95.20
65044;DHT22;51617;48.158;16.464;2023-08-31T06:06:14;19.40;94.50
65044;DHT22;51617;48.158;16.464;2023-08-31T06:08:40;19.40;94.30
65044;DHT22;51617;48.158;16.464;2023-08-31T06:11:08;19.50;94.30
65044;DHT22;51617;48.158;16.464;2023-08-31T06:13:33;19.60;94.30
65044;DHT22;51617;48.158;16.464;2023-08-31T06:15:59;19.50;94.30
65044;DHT22;51617;48.158;16.464;2023-08-31T06:18:25;19.50;93.50
65044;DHT22;51617;48.158;16.464;2023-08-31T06:20:51;19.60;93.70
65044;DHT22;51617;48.158;16.464;2023-08-31T06:23:16;19.60;93.90
65044;DHT22;51617;48.158;16.464;2023-08-31T06:25:42;19.60;93.50
65044;DHT22;51617;48.158;16.464;2023-08-31T06:28:07;19.60;93.80
65044;DHT22;51617;48.158;16.464;2023-08-31T06:30:36;19.70;93.10
65044;DHT22;51617;48.158;16.464;2023-08-31T06:33:02;19.70;93.00
65044;DHT22;51617;48.158;16.464;2023-08-31T06:35:27;19.80;93.40
65044;DHT22;51617;48.158;16.464;2023-08-31T06:37:53;19.80;92.80
65044;DHT22;51617;48.158;16.464;2023-08-31T06:40:21;19.80;92.00
65044;DHT22;51617;48.158;16.464;2023-08-31T06:42:46;19.90;91.80
65044;DHT22;51617;48.158;16.464;2023-08-31T06:45:12;19.90;92.10
65044;DHT22;51617;48.158;16.464;2023-08-31T06:47:37;20.00;92.00
65044;DHT22;51617;48.158;16.464;2023-08-31T06:50:03;20.10;92.10
65044;DHT22;51617;48.158;16.464;2023-08-31T06:52:29;20.10;91.80
65044;DHT22;51617;48.158;16.464;2023-08-31T06:54:55;20.10;91.70
65044;DHT22;51617;48.158;16.464;2023-08-31T06:57:22;20.10;91.20
65044;DHT22;51617;48.158;16.464;2023-08-31T06:59:48;20.20;91.60
65044;DHT22;51617;48.158;16.464;2023-08-31T07:02:13;20.10;91.40
65044;DHT22;51617;48.158;16.464;2023-08-31T07:04:39;20.20;91.70
65044;DHT22;51617;48.158;16.464;2023-08-31T07:07:05;20.30;91.50
65044;DHT22;51617;48.158;16.464;2023-08-31T07:09:30;20.30;91.60
65044;DHT22;51617;48.158;16.464;2023-08-31T07:11:56;20.50;91.50
65044;DHT22;51617;48.158;16.464;2023-08-31T07:14:21;20.50;91.20
65044;DHT22;51617;48.158;16.464;2023-08-31T07:16:47;20.30;91.10
65044;DHT22;51617;48.158;16.464;2023-08-31T07:19:12;20.20;91.40
65044;DHT22;51617;48.158;16.464;2023-08-31T07:21:38;20.20;91.60
65044;DHT22;51617;48.158;16.464;2023-08-31T07:24:03;20.10;91.70
65044;DHT22;51617;48.158;16.464;2023-08-31T07:26:30;20.30;92.10
65044;DHT22;51617;48.158;16.464;2023-08-31T07:28:55;20.40;92.20
65044;DHT22;51617;48.158;16.464;2023-08-31T07:31:21;20.50;91.50
65044;DHT22;51617;48.158;16.464;2023-08-31T07:33:46;20.50;91.90
65044;DHT22;51617;48.158;16.464;2023-08-31T07:36:12;20.60;91.60
65044;DHT22;51617;48.158;16.464;2023-08-31T07:38:37;20.50;91.60
65044;DHT22;51617;48.158;16.464;2023-08-31T07:41:03;20.60;91.80
65044;DHT22;51617;48.158;16.464;2023-08-31T07:43:29;20.70;91.70
65044;DHT22;51617;48.158;16.464;2023-08-31T07:45:55;20.80;91.60
65044;DHT22;51617;48.158;16.464;2023-08-31T07:48:21;20.90;91.20
65044;DHT22;51617;48.158;16.464;2023-08-31T07:50:47;21.00;91.50
65044;DHT22;51617;48.158;16.464;2023-08-31T07:53:14;21.00;91.70
65044;DHT22;51617;48.158;16.464;2023-08-31T07:55:39;21.10;91.20
65044;DHT22;51617;48.158;16.464;2023-08-31T07:58:05;21.10;91.20
65044;DHT22;51617;48.158;16.464;2023-08-31T08:00:30;21.30;91.10
65044;DHT22;51617;48.158;16.464;2023-08-31T08:02:56;21.30;90.80
65044;DHT22;51617;48.158;16.464;2023-08-31T08:05:21;21.20;90.50
65044;DHT22;51617;48.158;16.464;2023-08-31T08:07:47;21.10;90.50
65044;DHT22;51617;48.158;16.464;2023-08-31T08:10:12;20.90;90.50
65044;DHT22;51617;48.158;16.464;2023-08-31T08:12:42;20.80;91.00
65044;DHT22;51617;48.158;16.464;2023-08-31T08:15:11;21.00;90.90
65044;DHT22;51617;48.158;16.464;2023-08-31T08:17:37;21.10;90.80
65044;DHT22;51617;48.158;16.464;2023-08-31T08:20:03;21.30;90.90
65044;DHT22;51617;48.158;16.464;2023-08-31T08:22:28;21.30;90.50
65044;DHT22;51617;48.158;16.464;2023-08-31T08:24:54;21.30;90.40
65044;DHT22;51617;48.158;16.464;2023-08-31T08:27:19;21.50;90.30
65044;DHT22;51617;48.158;16.464;2023-08-31T08:29:45;21.50;90.10
65044;DHT22;51617;48.158;16.464;2023-08-31T08:32:12;21.50;89.90
65044;DHT22;51617;48.158;16.464;2023-08-31T08:34:37;21.50;90.60
65044;DHT22;51617;48.158;16.464;2023-08-31T08:37:03;21.50;89.20
65044;DHT22;51617;48.158;16.464;2023-08-31T08:39:29;21.60;89.80
65044;DHT22;51617;48.158;16.464;2023-08-31T08:41:54;21.70;89.20
65044;DHT22;51617;48.158;16.464;2023-08-31T08:44:22;21.80;87.40
65044;DHT22;51617;48.158;16.464;2023-08-31T08:46:49;21.80;87.40
65044;DHT22;51617;48.158;16.464;2023-08-31T08:49:15;21.70;87.20
65044;DHT22;51617;48.158;16.464;2023-08-31T08:51:40;21.70;87.60
65044;DHT22;51617;48.158;16.464;2023-08-31T08:54:07;21.80;87.70
65044;DHT22;51617;48.158;16.464;2023-08-31T08:56:33;21.90;86.40
65044;DHT22;51617;48.158;16.464;2023-08-31T08:58:59;21.80;85.70
65044;DHT22;51617;48.158;16.464;2023-08-31T09:01:25;21.70;85.10
65044;DHT22;51617;48.158;16.464;2023-08-31T09:03:51;21.60;85.60
65044;DHT22;51617;48.158;16.464;2023-08-31T09:06:17;21.50;86.10
65044;DHT22;51617;48.158;16.464;2023-08-31T09:08:42;21.60;86.10
65044;DHT22;51617;48.158;16.464;2023-08-31T09:11:08;21.50;86.40
65044;DHT22;51617;48.158;16.464;2023-08-31T09:13:34;21.50;86.70
65044;DHT22;51617;48.158;16.464;2023-08-31T09:15:59;21.50;85.60
65044;DHT22;51617;48.158;16.464;2023-08-31T09:20:51;21.60;85.10
65044;DHT22;51617;48.158;16.464;2023-08-31T09:23:16;21.70;85.50
65044;DHT22;51617;48.158;16.464;2023-08-31T09:25:45;21.70;85.00
65044;DHT22;51617;48.158;16.464;2023-08-31T09:28:12;21.70;84.40
65044;DHT22;51617;48.158;16.464;2023-08-31T09:30:39;21.70;83.80
65044;DHT22;51617;48.158;16.464;2023-08-31T09:33:09;21.80;84.80
65044;DHT22;51617;48.158;16.464;2023-08-31T09:35:38;21.90;84.30
65044;DHT22;51617;48.158;16.464;2023-08-31T09:38:06;22.10;83.70
65044;DHT22;51617;48.158;16.464;2023-08-31T09:40:32;22.10;83.00
65044;DHT22;51617;48.158;16.464;2023-08-31T09:42:57;22.10;83.90
65044;DHT22;51617;48.158;16.464;2023-08-31T09:45:30;22.10;83.90
65044;DHT22;51617;48.158;16.464;2023-08-31T09:47:58;22.30;84.80
65044;DHT22;51617;48.158;16.464;2023-08-31T09:50:24;22.40;83.30
65044;DHT22;51617;48.158;16.464;2023-08-31T09:52:50;22.40;83.90
65044;DHT22;51617;48.158;16.464;2023-08-31T09:55:19;22.50;83.20
65044;DHT22;51617;48.158;16.464;2023-08-31T09:57:46;22.50;83.30
65044;DHT22;51617;48.158;16.464;2023-08-31T10:00:12;22.40;83.50
65044;DHT22;51617;48.158;16.464;2023-08-31T10:02:41;22.60;83.80
65044;DHT22;51617;48.158;16.464;2023-08-31T10:05:07;22.70;81.50
65044;DHT22;51617;48.158;16.464;2023-08-31T10:07:33;22.70;82.00
65044;DHT22;51617;48.158;16.464;2023-08-31T10:09:59;22.70;81.50
65044;DHT22;51617;48.158;16.464;2023-08-31T10:12:26;22.80;81.60
65044;DHT22;51617;48.158;16.464;2023-08-31T10:14:52;23.00;82.20
65044;DHT22;51617;48.158;16.464;2023-08-31T10:17:19;23.20;80.30
65044;DHT22;51617;48.158;16.464;2023-08-31T10:19:45;23.80;80.80
65044;DHT22;51617;48.158;16.464;2023-08-31T10:22:10;23.40;80.10
65044;DHT22;51617;48.158;16.464;2023-08-31T10:24:57;23.40;79.70
65044;DHT22;51617;48.158;16.464;2023-08-31T10:27:22;23.50;80.20
65044;DHT22;51617;48.158;16.464;2023-08-31T10:29:48;23.30;80.90
65044;DHT22;51617;48.158;16.464;2023-08-31T10:32:17;23.20;81.00
65044;DHT22;51617;48.158;16.464;2023-08-31T10:34:43;23.40;80.00
65044;DHT22;51617;48.158;16.464;2023-08-31T10:37:19;23.30;79.20
65044;DHT22;51617;48.158;16.464;2023-08-31T10:39:45;23.10;79.50
65044;DHT22;51617;48.158;16.464;2023-08-31T10:42:10;23.00;78.70
65044;DHT22;51617;48.158;16.464;2023-08-31T10:44:37;23.00;78.30
65044;DHT22;51617;48.158;16.464;2023-08-31T10:47:05;23.00;76.70
65044;DHT22;51617;48.158;16.464;2023-08-31T10:49:31;23.00;76.00
65044;DHT22;51617;48.158;16.464;2023-08-31T10:52:14;23.00;76.60
65044;DHT22;51617;48.158;16.464;2023-08-31T10:54:41;23.10;78.40
65044;DHT22;51617;48.158;16.464;2023-08-31T10:57:07;23.20;77.60
65044;DHT22;51617;48.158;16.464;2023-08-31T11:02:07;23.30;76.80
65044;DHT22;51617;48.158;16.464;2023-08-31T11:04:51;23.40;77.40
65044;DHT22;51617;48.158;16.464;2023-08-31T11:07:17;23.30;75.40
65044;DHT22;51617;48.158;16.464;2023-08-31T11:09:43;23.50;75.60
65044;DHT22;51617;48.158;16.464;2023-08-31T11:12:09;23.50;76.60
65044;DHT22;51617;48.158;16.464;2023-08-31T11:14:35;23.50;76.00
65044;DHT22;51617;48.158;16.464;2023-08-31T11:17:01;23.50;75.70
65044;DHT22;51617;48.158;16.464;2023-08-31T11:19:30;23.40;73.50
65044;DHT22;51617;48.158;16.464;2023-08-31T11:21:56;23.10;73.40
65044;DHT22;51617;48.158;16.464;2023-08-31T11:24:21;23.20;74.90
65044;DHT22;51617;48.158;16.464;2023-08-31T11:26:47;23.40;75.20
65044;DHT22;51617;48.158;16.464;2023-08-31T11:29:13;23.50;73.10
65044;DHT22;51617;48.158;16.464;2023-08-31T11:31:38;23.40;73.00
65044;DHT22;51617;48.158;16.464;2023-08-31T11:34:05;23.40;73.00
65044;DHT22;51617;48.158;16.464;2023-08-31T11:36:32;23.40;71.40
65044;DHT22;51617;48.158;16.464;2023-08-31T11:38:58;23.40;72.50
65044;DHT22;51617;48.158;16.464;2023-08-31T11:41:23;23.50;71.70
65044;DHT22;51617;48.158;16.464;2023-08-31T11:43:49;23.60;71.20
65044;DHT22;51617;48.158;16.464;2023-08-31T11:46:15;23.50;71.90
65044;DHT22;51617;48.158;16.464;2023-08-31T11:48:41;23.60;71.00
65044;DHT22;51617;48.158;16.464;2023-08-31T11:51:07;23.60;71.50
65044;DHT22;51617;48.158;16.464;2023-08-31T11:53:33;23.80;71.00
65044;DHT22;51617;48.158;16.464;2023-08-31T11:56:01;23.60;70.60
65044;DHT22;51617;48.158;16.464;2023-08-31T11:58:26;23.40;71.00
65044;DHT22;51617;48.158;16.464;2023-08-31T12:00:58;23.60;71.90
65044;DHT22;51617;48.158;16.464;2023-08-31T12:03:25;23.70;71.30
65044;DHT22;51617;48.158;16.464;2023-08-31T12:05:51;23.70;71.20
65044;DHT22;51617;48.158;16.464;2023-08-31T12:08:23;23.60;71.50
65044;DHT22;51617;48.158;16.464;2023-08-31T12:10:49;23.70;72.80
65044;DHT22;51617;48.158;16.464;2023-08-31T12:13:15;23.90;71.00
65044;DHT22;51617;48.158;16.464;2023-08-31T12:15:40;23.80;72.20
65044;DHT22;51617;48.158;16.464;2023-08-31T12:18:06;23.60;72.50
65044;DHT22;51617;48.158;16.464;2023-08-31T12:20:32;23.70;74.10
65044;DHT22;51617;48.158;16.464;2023-08-31T12:22:58;23.70;72.60
65044;DHT22;51617;48.158;16.464;2023-08-31T12:25:23;23.80;71.80
65044;DHT22;51617;48.158;16.464;2023-08-31T12:27:49;24.00;71.60
65044;DHT22;51617;48.158;16.464;2023-08-31T12:30:15;24.10;71.50
65044;DHT22;51617;48.158;16.464;2023-08-31T12:32:41;24.10;69.60
65044;DHT22;51617;48.158;16.464;2023-08-31T12:35:06;23.90;70.10
65044;DHT22;51617;48.158;16.464;2023-08-31T12:37:32;23.90;71.10
65044;DHT22;51617;48.158;16.464;2023-08-31T12:39:58;24.10;68.50
65044;DHT22;51617;48.158;16.464;2023-08-31T12:42:23;24.00;69.00
65044;DHT22;51617;48.158;16.464;2023-08-31T12:44:49;23.90;69.40
65044;DHT22;51617;48.158;16.464;2023-08-31T12:47:14;23.90;69.10
65044;DHT22;51617;48.158;16.464;2023-08-31T12:49:40;23.90;70.20
65044;DHT22;51617;48.158;16.464;2023-08-31T12:52:05;23.90;69.20
65044;DHT22;51617;48.158;16.464;2023-08-31T12:54:31;23.80;69.70
65044;DHT22;51617;48.158;16.464;2023-08-31T12:56:56;24.00;69.90
65044;DHT22;51617;48.158;16.464;2023-08-31T12:59:22;24.20;69.80
65044;DHT22;51617;48.158;16.464;2023-08-31T13:01:47;24.20;68.70
65044;DHT22;51617;48.158;16.464;2023-08-31T13:04:13;24.00;69.70
65044;DHT22;51617;48.158;16.464;2023-08-31T13:06:39;24.00;70.00
65044;DHT22;51617;48.158;16.464;2023-08-31T13:09:05;24.10;70.20
65044;DHT22;51617;48.158;16.464;2023-08-31T13:11:34;24.30;69.30
65044;DHT22;51617;48.158;16.464;2023-08-31T13:13:59;24.40;69.40
65044;DHT22;51617;48.158;16.464;2023-08-31T13:16:25;24.30;69.50
65044;DHT22;51617;48.158;16.464;2023-08-31T13:18:50;24.20;70.00
65044;DHT22;51617;48.158;16.464;2023-08-31T13:21:16;24.20;70.50
65044;DHT22;51617;48.158;16.464;2023-08-31T13:23:41;24.20;70.00
65044;DHT22;51617;48.158;16.464;2023-08-31T13:26:09;24.30;70.50
65044;DHT22;51617;48.158;16.464;2023-08-31T13:28:35;24.30;69.50
65044;DHT22;51617;48.158;16.464;2023-08-31T13:31:00;24.30;68.60
65044;DHT22;51617;48.158;16.464;2023-08-31T13:33:26;24.40;68.80
65044;DHT22;51617;48.158;16.464;2023-08-31T13:35:56;24.40;67.40
65044;DHT22;51617;48.158;16.464;2023-08-31T13:38:22;24.40;68.60
65044;DHT22;51617;48.158;16.464;2023-08-31T13:40:48;24.40;69.30
65044;DHT22;51617;48.158;16.464;2023-08-31T13:43:13;24.30;68.00
65044;DHT22;51617;48.158;16.464;2023-08-31T13:45:39;24.30;67.90
65044;DHT22;51617;48.158;16.464;2023-08-31T13:48:05;24.10;67.30
65044;DHT22;51617;48.158;16.464;2023-08-31T13:50:30;24.10;68.10
65044;DHT22;51617;48.158;16.464;2023-08-31T13:52:56;24.00;67.00
65044;DHT22;51617;48.158;16.464;2023-08-31T13:55:22;23.90;65.70
65044;DHT22;51617;48.158;16.464;2023-08-31T13:57:48;23.90;66.70
65044;DHT22;51617;48.158;16.464;2023-08-31T14:00:14;23.80;67.20
65044;DHT22;51617;48.158;16.464;2023-08-31T14:02:41;23.70;65.90
65044;DHT22;51617;48.158;16.464;2023-08-31T14:05:07;23.70;66.00
65044;DHT22;51617;48.158;16.464;2023-08-31T14:07:34;23.70;66.60
65044;DHT22;51617;48.158;16.464;2023-08-31T14:10:00;23.80;66.60
65044;DHT22;51617;48.158;16.464;2023-08-31T14:12:25;23.80;67.30
65044;DHT22;51617;48.158;16.464;2023-08-31T14:14:51;24.00;68.30
65044;DHT22;51617;48.158;16.464;2023-08-31T14:17:18;24.10;68.20
65044;DHT22;51617;48.158;16.464;2023-08-31T14:19:44;24.20;68.10
65044;DHT22;51617;48.158;16.464;2023-08-31T14:22:09;24.30;68.20
65044;DHT22;51617;48.158;16.464;2023-08-31T14:24:35;24.30;68.50
65044;DHT22;51617;48.158;16.464;2023-08-31T14:27:02;24.40;68.30
65044;DHT22;51617;48.158;16.464;2023-08-31T14:29:28;24.40;69.70
65044;DHT22;51617;48.158;16.464;2023-08-31T14:31:54;24.50;67.00
65044;DHT22;51617;48.158;16.464;2023-08-31T14:34:21;24.50;66.60
65044;DHT22;51617;48.158;16.464;2023-08-31T14:36:47;24.30;66.30
65044;DHT22;51617;48.158;16.464;2023-08-31T14:39:13;24.50;66.60
65044;DHT22;51617;48.158;16.464;2023-08-31T14:41:40;24.30;66.40
65044;DHT22;51617;48.158;16.464;2023-08-31T14:44:06;24.40;67.40
65044;DHT22;51617;48.158;16.464;2023-08-31T14:46:32;24.60;66.00
65044;DHT22;51617;48.158;16.464;2023-08-31T14:48:58;24.50;66.00
65044;DHT22;51617;48.158;16.464;2023-08-31T14:51:24;24.40;65.00
65044;DHT22;51617;48.158;16.464;2023-08-31T14:53:51;24.30;65.60
65044;DHT22;51617;48.158;16.464;2023-08-31T14:56:17;24.40;64.70
65044;DHT22;51617;48.158;16.464;2023-08-31T14:58:43;24.30;65.30
65044;DHT22;51617;48.158;16.464;2023-08-31T15:01:09;24.40;65.80
65044;DHT22;51617;48.158;16.464;2023-08-31T15:03:35;24.60;65.70
65044;DHT22;51617;48.158;16.464;2023-08-31T15:06:02;24.70;65.50
65044;DHT22;51617;48.158;16.464;2023-08-31T15:08:38;24.70;64.60
65044;DHT22;51617;48.158;16.464;2023-08-31T15:11:04;24.60;64.40
65044;DHT22;51617;48.158;16.464;2023-08-31T15:13:31;24.50;64.70
65044;DHT22;51617;48.158;16.464;2023-08-31T15:15:57;24.50;65.60
65044;DHT22;51617;48.158;16.464;2023-08-31T15:18:25;24.60;65.10
65044;DHT22;51617;48.158;16.464;2023-08-31T15:20:51;24.60;64.60
65044;DHT22;51617;48.158;16.464;2023-08-31T15:23:17;24.80;64.80